AWE672 KFLL-KPIT
Flight info
| Callsign | AWE672 |
|---|---|
| Flight time | 2h 26m |
| Altitude | 35000 |
| Route | AGERS1 DUCEN Q87 VIYAP Q69 RICCS LEJOY DEMME5 |
| Aircraft | A321/M-SDE3FGHIRWY/LB1 |
Departure
| Time | 2026-05-05 17:24 |
|---|---|
| Airport | Fort Lauderdale Hollywood International Airport (KFLL) |
Arrival
| Time | 2026-05-05 19:51 |
|---|---|
| Airport | Pittsburgh International Airport (KPIT) |
| Time | Latitude | Longitude | Altitude | Speed | Heading |
|---|---|---|---|---|---|
| 2026-05-05 16:53 | 26.07380 | -80.14701 | 24 ft | 0 kts | 189° |
| 2026-05-05 17:13 | 26.07388 | -80.14699 | 23 ft | 3 kts | 189° |
| 2026-05-05 17:13 | 26.07406 | -80.14696 | 25 ft | 3 kts | 189° |
| 2026-05-05 17:14 | 26.07424 | -80.14692 | 24 ft | 3 kts | 189° |
| 2026-05-05 17:14 | 26.07443 | -80.14688 | 27 ft | 3 kts | 219° |
| 2026-05-05 17:14 | 26.07453 | -80.14672 | 29 ft | 3 kts | 245° |
| 2026-05-05 17:14 | 26.07461 | -80.14654 | 29 ft | 3 kts | 245° |
| 2026-05-05 17:15 | 26.07468 | -80.14636 | 30 ft | 3 kts | 245° |
| 2026-05-05 17:15 | 26.07475 | -80.14618 | 29 ft | 3 kts | 245° |
| 2026-05-05 17:15 | 26.07483 | -80.14600 | 27 ft | 3 kts | 245° |
| 2026-05-05 17:15 | 26.07490 | -80.14582 | 27 ft | 3 kts | 264° |
| 2026-05-05 17:16 | 26.07490 | -80.14581 | 28 ft | 0 kts | 264° |
| 2026-05-05 17:17 | 26.07490 | -80.14582 | 27 ft | 1 kts | 264° |
| 2026-05-05 17:18 | 26.07489 | -80.14595 | 29 ft | 3 kts | 267° |
| 2026-05-05 17:18 | 26.07488 | -80.14625 | 28 ft | 5 kts | 269° |
| 2026-05-05 17:18 | 26.07489 | -80.14675 | 27 ft | 8 kts | 270° |
| 2026-05-05 17:18 | 26.07504 | -80.14744 | 23 ft | 11 kts | 303° |
| 2026-05-05 17:19 | 26.07554 | -80.14815 | 23 ft | 12 kts | 296° |
| 2026-05-05 17:19 | 26.07562 | -80.14913 | 21 ft | 14 kts | 269° |
| 2026-05-05 17:19 | 26.07562 | -80.15035 | 19 ft | 17 kts | 270° |
| 2026-05-05 17:19 | 26.07562 | -80.15173 | 17 ft | 19 kts | 270° |
| 2026-05-05 17:20 | 26.07564 | -80.15323 | 17 ft | 20 kts | 270° |
| 2026-05-05 17:20 | 26.07565 | -80.15479 | 17 ft | 21 kts | 270° |
| 2026-05-05 17:20 | 26.07566 | -80.15585 | 17 ft | 21 kts | 270° |
| 2026-05-05 17:20 | 26.07567 | -80.15743 | 20 ft | 20 kts | 270° |
| 2026-05-05 17:21 | 26.07567 | -80.15895 | 23 ft | 19 kts | 270° |
| 2026-05-05 17:21 | 26.07567 | -80.16040 | 24 ft | 19 kts | 270° |
| 2026-05-05 17:21 | 26.07569 | -80.16186 | 25 ft | 19 kts | 271° |
| 2026-05-05 17:22 | 26.07570 | -80.16488 | 25 ft | 21 kts | 271° |
| 2026-05-05 17:22 | 26.07572 | -80.16586 | 23 ft | 13 kts | 273° |
| 2026-05-05 17:22 | 26.07638 | -80.16643 | 22 ft | 14 kts | 1° |
| 2026-05-05 17:22 | 26.07695 | -80.16572 | 22 ft | 14 kts | 88° |
| 2026-05-05 17:23 | 26.07695 | -80.16539 | 23 ft | 0 kts | 90° |
| 2026-05-05 17:23 | 26.07694 | -80.16506 | 24 ft | 24 kts | 90° |
| 2026-05-05 17:23 | 26.07692 | -80.16030 | 24 ft | 97 kts | 90° |
| 2026-05-05 17:23 | 26.07686 | -80.15041 | 21 ft | 155 kts | 90° |
| 2026-05-05 17:24 | 26.07681 | -80.13982 | 362 ft | 168 kts | 91° |
| 2026-05-05 17:24 | 26.07676 | -80.12618 | 859 ft | 181 kts | 90° |
| 2026-05-05 17:24 | 26.07700 | -80.11179 | 1390 ft | 194 kts | 85° |
| 2026-05-05 17:24 | 26.07886 | -80.09608 | 1676 ft | 217 kts | 68° |
| 2026-05-05 17:25 | 26.08674 | -80.08092 | 2071 ft | 240 kts | 45° |
| 2026-05-05 17:25 | 26.09502 | -80.07227 | 2536 ft | 252 kts | 35° |
| 2026-05-05 17:25 | 26.11659 | -80.06089 | 3630 ft | 263 kts | 18° |
| 2026-05-05 17:25 | 26.13412 | -80.05402 | 4011 ft | 269 kts | 17° |
| 2026-05-05 17:26 | 26.15254 | -80.05017 | 4841 ft | 271 kts | 0° |
| 2026-05-05 17:26 | 26.17119 | -80.05234 | 5648 ft | 272 kts | 342° |
| 2026-05-05 17:26 | 26.18921 | -80.05907 | 6428 ft | 274 kts | 338° |
| 2026-05-05 17:26 | 26.20690 | -80.06718 | 7143 ft | 276 kts | 327° |
| 2026-05-05 17:27 | 26.22172 | -80.08019 | 7807 ft | 276 kts | 310° |
| 2026-05-05 17:27 | 26.23263 | -80.09778 | 8480 ft | 277 kts | 294° |
| 2026-05-05 17:27 | 26.23989 | -80.11767 | 9146 ft | 279 kts | 290° |
| 2026-05-05 17:27 | 26.24743 | -80.13769 | 9832 ft | 281 kts | 297° |
| 2026-05-05 17:28 | 26.25886 | -80.15587 | 10178 ft | 298 kts | 311° |
| 2026-05-05 17:28 | 26.27570 | -80.17091 | 10297 ft | 324 kts | 328° |
| 2026-05-05 17:28 | 26.29638 | -80.18261 | 10426 ft | 342 kts | 331° |
| 2026-05-05 17:28 | 26.31802 | -80.19465 | 10884 ft | 349 kts | 331° |
| 2026-05-05 17:29 | 26.33978 | -80.20684 | 11483 ft | 353 kts | 330° |
| 2026-05-05 17:29 | 26.36189 | -80.21913 | 12127 ft | 356 kts | 333° |
| 2026-05-05 17:29 | 26.38552 | -80.22787 | 12702 ft | 362 kts | 345° |
| 2026-05-05 17:29 | 26.41075 | -80.23141 | 13269 ft | 367 kts | 351° |
| 2026-05-05 17:30 | 26.43615 | -80.23391 | 13814 ft | 369 kts | 351° |
| 2026-05-05 17:30 | 26.46191 | -80.23650 | 14313 ft | 371 kts | 351° |
| 2026-05-05 17:30 | 26.48765 | -80.23913 | 14815 ft | 372 kts | 351° |
| 2026-05-05 17:30 | 26.51353 | -80.24178 | 15382 ft | 374 kts | 351° |
| 2026-05-05 17:31 | 26.53915 | -80.24440 | 15976 ft | 375 kts | 351° |
| 2026-05-05 17:31 | 26.56555 | -80.24719 | 16567 ft | 376 kts | 350° |
| 2026-05-05 17:31 | 26.59158 | -80.25068 | 17072 ft | 377 kts | 348° |
| 2026-05-05 17:31 | 26.61716 | -80.25485 | 17547 ft | 377 kts | 347° |
| 2026-05-05 17:32 | 26.64342 | -80.25952 | 18060 ft | 379 kts | 347° |
| 2026-05-05 17:32 | 26.66917 | -80.26417 | 18502 ft | 380 kts | 347° |
| 2026-05-05 17:32 | 26.69532 | -80.26890 | 18884 ft | 381 kts | 345° |
| 2026-05-05 17:32 | 26.72070 | -80.27666 | 19227 ft | 378 kts | 336° |
| 2026-05-05 17:33 | 26.74541 | -80.28714 | 19607 ft | 379 kts | 335° |
| 2026-05-05 17:33 | 26.77016 | -80.29753 | 19989 ft | 381 kts | 335° |
| 2026-05-05 17:33 | 26.79492 | -80.30784 | 20362 ft | 383 kts | 335° |
| 2026-05-05 17:33 | 26.81991 | -80.31825 | 20722 ft | 384 kts | 335° |
| 2026-05-05 17:34 | 26.84502 | -80.32872 | 21100 ft | 385 kts | 335° |
| 2026-05-05 17:34 | 26.87021 | -80.33922 | 21480 ft | 387 kts | 335° |
| 2026-05-05 17:34 | 26.89553 | -80.34981 | 21886 ft | 389 kts | 335° |
| 2026-05-05 17:34 | 26.92089 | -80.36044 | 22267 ft | 390 kts | 335° |
| 2026-05-05 17:35 | 26.94642 | -80.37114 | 22643 ft | 392 kts | 335° |
| 2026-05-05 17:35 | 26.97212 | -80.38172 | 23016 ft | 394 kts | 335° |
| 2026-05-05 17:35 | 26.99803 | -80.39218 | 23387 ft | 396 kts | 335° |
| 2026-05-05 17:35 | 27.02367 | -80.40243 | 23717 ft | 397 kts | 335° |
| 2026-05-05 17:36 | 27.04975 | -80.41285 | 24005 ft | 399 kts | 335° |
| 2026-05-05 17:36 | 27.07588 | -80.42334 | 24297 ft | 400 kts | 335° |
| 2026-05-05 17:36 | 27.10208 | -80.43396 | 24597 ft | 401 kts | 335° |
| 2026-05-05 17:36 | 27.12816 | -80.44506 | 24890 ft | 401 kts | 334° |
| 2026-05-05 17:37 | 27.15423 | -80.45658 | 25208 ft | 402 kts | 334° |
| 2026-05-05 17:37 | 27.18022 | -80.46827 | 25514 ft | 403 kts | 334° |
| 2026-05-05 17:37 | 27.20622 | -80.48002 | 25813 ft | 404 kts | 334° |
| 2026-05-05 17:37 | 27.23159 | -80.49143 | 26095 ft | 405 kts | 334° |
| 2026-05-05 17:38 | 27.25788 | -80.50317 | 26397 ft | 406 kts | 334° |
| 2026-05-05 17:38 | 27.28423 | -80.51485 | 26687 ft | 407 kts | 334° |
| 2026-05-05 17:38 | 27.31065 | -80.52653 | 26972 ft | 409 kts | 334° |
| 2026-05-05 17:38 | 27.33705 | -80.53819 | 27254 ft | 410 kts | 334° |
| 2026-05-05 17:39 | 27.36330 | -80.54979 | 27575 ft | 411 kts | 334° |
| 2026-05-05 17:39 | 27.39009 | -80.56126 | 27863 ft | 413 kts | 336° |
| 2026-05-05 17:39 | 27.41722 | -80.57222 | 28157 ft | 414 kts | 336° |
| 2026-05-05 17:39 | 27.44451 | -80.58282 | 28444 ft | 416 kts | 337° |
| 2026-05-05 17:40 | 27.47195 | -80.59333 | 28681 ft | 417 kts | 337° |
| 2026-05-05 17:40 | 27.49938 | -80.60391 | 28942 ft | 418 kts | 337° |
| 2026-05-05 17:40 | 27.52689 | -80.61465 | 29192 ft | 419 kts | 336° |
| 2026-05-05 17:40 | 27.55443 | -80.62555 | 29392 ft | 420 kts | 336° |
| 2026-05-05 17:41 | 27.58196 | -80.63655 | 29611 ft | 421 kts | 336° |
| 2026-05-05 17:41 | 27.60956 | -80.64762 | 29829 ft | 422 kts | 336° |
| 2026-05-05 17:41 | 27.63722 | -80.65872 | 30062 ft | 422 kts | 336° |
| 2026-05-05 17:41 | 27.66486 | -80.66979 | 30328 ft | 421 kts | 336° |
| 2026-05-05 17:42 | 27.69246 | -80.68082 | 30597 ft | 419 kts | 336° |
| 2026-05-05 17:42 | 27.71987 | -80.69177 | 30859 ft | 417 kts | 336° |
| 2026-05-05 17:42 | 27.74716 | -80.70264 | 31135 ft | 415 kts | 336° |
| 2026-05-05 17:42 | 27.77438 | -80.71349 | 31451 ft | 413 kts | 336° |
| 2026-05-05 17:43 | 27.80138 | -80.72425 | 31755 ft | 410 kts | 336° |
| 2026-05-05 17:43 | 27.82789 | -80.73482 | 32039 ft | 408 kts | 336° |
| 2026-05-05 17:43 | 27.85494 | -80.74563 | 32321 ft | 406 kts | 336° |
| 2026-05-05 17:43 | 27.88144 | -80.75625 | 32597 ft | 404 kts | 336° |
| 2026-05-05 17:44 | 27.90731 | -80.76663 | 32861 ft | 402 kts | 336° |
| 2026-05-05 17:44 | 27.93361 | -80.77720 | 33132 ft | 400 kts | 336° |
| 2026-05-05 17:44 | 27.95977 | -80.78773 | 33401 ft | 398 kts | 336° |
| 2026-05-05 17:44 | 27.98575 | -80.79820 | 33666 ft | 396 kts | 336° |
| 2026-05-05 17:45 | 28.01173 | -80.80866 | 33930 ft | 394 kts | 336° |
| 2026-05-05 17:45 | 28.03750 | -80.81902 | 34180 ft | 392 kts | 336° |
| 2026-05-05 17:45 | 28.06320 | -80.82934 | 34454 ft | 391 kts | 336° |
| 2026-05-05 17:45 | 28.08876 | -80.83960 | 34691 ft | 388 kts | 335° |
| 2026-05-05 17:46 | 28.11413 | -80.84981 | 34915 ft | 387 kts | 335° |
| 2026-05-05 17:46 | 28.13925 | -80.85994 | 35045 ft | 386 kts | 335° |
| 2026-05-05 17:46 | 28.16438 | -80.87004 | 35086 ft | 381 kts | 335° |
| 2026-05-05 17:47 | 28.21413 | -80.89011 | 35092 ft | 378 kts | 335° |
| 2026-05-05 17:47 | 28.26368 | -80.91007 | 35083 ft | 378 kts | 335° |
| 2026-05-05 17:48 | 28.31344 | -80.93014 | 35101 ft | 380 kts | 335° |
| 2026-05-05 17:48 | 28.36319 | -80.95028 | 35134 ft | 380 kts | 335° |
| 2026-05-05 17:49 | 28.41292 | -80.97044 | 35134 ft | 380 kts | 335° |
| 2026-05-05 17:49 | 28.46272 | -80.99065 | 35134 ft | 380 kts | 335° |
| 2026-05-05 17:50 | 28.51255 | -81.01085 | 35132 ft | 380 kts | 335° |
| 2026-05-05 17:50 | 28.56236 | -81.03107 | 35128 ft | 380 kts | 335° |
| 2026-05-05 17:51 | 28.61212 | -81.05133 | 35112 ft | 380 kts | 335° |
| 2026-05-05 17:51 | 28.66196 | -81.07158 | 35116 ft | 380 kts | 335° |
| 2026-05-05 17:52 | 28.71163 | -81.09177 | 35133 ft | 379 kts | 335° |
| 2026-05-05 17:52 | 28.76131 | -81.11204 | 35132 ft | 379 kts | 335° |
| 2026-05-05 17:53 | 28.81093 | -81.13226 | 35129 ft | 379 kts | 335° |
| 2026-05-05 17:53 | 28.86051 | -81.15253 | 35122 ft | 379 kts | 335° |
| 2026-05-05 17:54 | 28.91017 | -81.17287 | 35128 ft | 379 kts | 335° |
| 2026-05-05 17:54 | 28.95946 | -81.19304 | 35132 ft | 379 kts | 335° |
| 2026-05-05 17:55 | 29.00905 | -81.21333 | 35154 ft | 378 kts | 335° |
| 2026-05-05 17:55 | 29.05854 | -81.23363 | 35148 ft | 378 kts | 335° |
| 2026-05-05 17:56 | 29.10805 | -81.25396 | 35145 ft | 378 kts | 335° |
| 2026-05-05 17:56 | 29.15764 | -81.27431 | 35142 ft | 378 kts | 335° |
| 2026-05-05 17:57 | 29.20714 | -81.29476 | 35121 ft | 379 kts | 334° |
| 2026-05-05 17:57 | 29.25678 | -81.31520 | 35159 ft | 379 kts | 335° |
| 2026-05-05 17:58 | 29.30961 | -81.32526 | 35147 ft | 392 kts | 349° |
| 2026-05-05 17:58 | 29.36422 | -81.32837 | 35151 ft | 393 kts | 349° |
| 2026-05-05 17:59 | 29.41849 | -81.33146 | 35148 ft | 392 kts | 349° |
| 2026-05-05 17:59 | 29.47304 | -81.33464 | 35147 ft | 392 kts | 349° |
| 2026-05-05 18:00 | 29.52752 | -81.33792 | 35143 ft | 392 kts | 349° |
| 2026-05-05 18:00 | 29.58213 | -81.34118 | 35161 ft | 393 kts | 348° |
| 2026-05-05 18:01 | 29.63676 | -81.34437 | 35157 ft | 393 kts | 348° |
| 2026-05-05 18:01 | 29.69135 | -81.34760 | 35161 ft | 393 kts | 348° |
| 2026-05-05 18:02 | 29.74595 | -81.35080 | 35162 ft | 393 kts | 348° |
| 2026-05-05 18:02 | 29.80058 | -81.35397 | 35158 ft | 393 kts | 348° |
| 2026-05-05 18:03 | 29.85484 | -81.35721 | 35172 ft | 393 kts | 348° |
| 2026-05-05 18:03 | 29.90974 | -81.36052 | 35171 ft | 393 kts | 348° |
| 2026-05-05 18:04 | 29.96397 | -81.36376 | 35159 ft | 392 kts | 348° |
| 2026-05-05 18:04 | 30.01850 | -81.36701 | 35160 ft | 392 kts | 348° |
| 2026-05-05 18:05 | 30.07300 | -81.37026 | 35158 ft | 392 kts | 348° |
| 2026-05-05 18:05 | 30.11830 | -81.37296 | 35188 ft | 392 kts | 348° |
| 2026-05-05 18:06 | 30.17269 | -81.37623 | 35147 ft | 391 kts | 348° |
| 2026-05-05 18:06 | 30.22706 | -81.37951 | 35138 ft | 391 kts | 348° |
| 2026-05-05 18:07 | 30.28153 | -81.38274 | 35142 ft | 392 kts | 348° |
| 2026-05-05 18:07 | 30.33596 | -81.38600 | 35143 ft | 392 kts | 348° |
| 2026-05-05 18:08 | 30.39043 | -81.38924 | 35144 ft | 392 kts | 348° |
| 2026-05-05 18:08 | 30.44502 | -81.39250 | 35144 ft | 392 kts | 348° |
| 2026-05-05 18:09 | 30.49918 | -81.39565 | 35145 ft | 393 kts | 348° |
| 2026-05-05 18:09 | 30.55387 | -81.39855 | 35157 ft | 393 kts | 348° |
| 2026-05-05 18:10 | 30.60854 | -81.40130 | 35154 ft | 393 kts | 348° |
| 2026-05-05 18:10 | 30.66315 | -81.40414 | 35155 ft | 393 kts | 348° |
| 2026-05-05 18:11 | 30.71782 | -81.40708 | 35171 ft | 393 kts | 348° |
| 2026-05-05 18:11 | 30.77243 | -81.41003 | 35160 ft | 393 kts | 348° |
| 2026-05-05 18:12 | 30.82707 | -81.41291 | 35151 ft | 393 kts | 348° |
| 2026-05-05 18:12 | 30.88169 | -81.41580 | 35142 ft | 393 kts | 348° |
| 2026-05-05 18:13 | 30.93628 | -81.41866 | 35134 ft | 393 kts | 348° |
| 2026-05-05 18:13 | 30.99091 | -81.42163 | 35158 ft | 392 kts | 348° |
| 2026-05-05 18:14 | 31.04542 | -81.42457 | 35147 ft | 392 kts | 348° |
| 2026-05-05 18:14 | 31.09985 | -81.42750 | 35143 ft | 391 kts | 348° |
| 2026-05-05 18:15 | 31.15421 | -81.43031 | 35140 ft | 391 kts | 348° |
| 2026-05-05 18:15 | 31.20864 | -81.43316 | 35147 ft | 391 kts | 348° |
| 2026-05-05 18:16 | 31.26265 | -81.43595 | 35148 ft | 389 kts | 348° |
| 2026-05-05 18:16 | 31.31681 | -81.43708 | 35139 ft | 390 kts | 350° |
| 2026-05-05 18:17 | 31.37110 | -81.43726 | 35134 ft | 390 kts | 350° |
| 2026-05-05 18:17 | 31.42538 | -81.43755 | 35130 ft | 390 kts | 350° |
| 2026-05-05 18:18 | 31.48018 | -81.43483 | 35123 ft | 404 kts | 1° |
| 2026-05-05 18:18 | 31.50769 | -81.42543 | 35121 ft | 416 kts | 8° |
| 2026-05-05 18:18 | 31.53464 | -81.41430 | 35145 ft | 416 kts | 8° |
| 2026-05-05 18:19 | 31.58924 | -81.39174 | 35133 ft | 416 kts | 7° |
| 2026-05-05 18:19 | 31.64381 | -81.36930 | 35126 ft | 415 kts | 7° |
| 2026-05-05 18:20 | 31.69839 | -81.34687 | 35123 ft | 415 kts | 7° |
| 2026-05-05 18:20 | 31.75279 | -81.32444 | 35120 ft | 415 kts | 7° |
| 2026-05-05 18:21 | 31.80727 | -81.30198 | 35121 ft | 414 kts | 7° |
| 2026-05-05 18:21 | 31.86164 | -81.27953 | 35118 ft | 414 kts | 7° |
| 2026-05-05 18:22 | 31.91592 | -81.25708 | 35115 ft | 413 kts | 7° |
| 2026-05-05 18:22 | 31.97027 | -81.23800 | 35113 ft | 397 kts | 357° |
| 2026-05-05 18:23 | 32.02395 | -81.23443 | 35108 ft | 388 kts | 352° |
| 2026-05-05 18:23 | 32.07802 | -81.23185 | 35139 ft | 388 kts | 352° |
| 2026-05-05 18:24 | 32.13200 | -81.22918 | 35135 ft | 388 kts | 352° |
| 2026-05-05 18:24 | 32.18597 | -81.22645 | 35131 ft | 388 kts | 352° |
| 2026-05-05 18:25 | 32.24005 | -81.22376 | 35124 ft | 388 kts | 352° |
| 2026-05-05 18:25 | 32.29410 | -81.22105 | 35120 ft | 389 kts | 352° |
| 2026-05-05 18:26 | 32.34813 | -81.21834 | 35125 ft | 389 kts | 352° |
| 2026-05-05 18:26 | 32.40224 | -81.21567 | 35118 ft | 389 kts | 352° |
| 2026-05-05 18:27 | 32.45596 | -81.21298 | 35107 ft | 389 kts | 352° |
| 2026-05-05 18:27 | 32.51035 | -81.20575 | 35113 ft | 399 kts | 0° |
| 2026-05-05 18:28 | 32.59234 | -81.18678 | 35136 ft | 401 kts | 0° |
| 2026-05-05 18:28 | 32.64702 | -81.17408 | 35116 ft | 401 kts | 0° |
| 2026-05-05 18:29 | 32.70191 | -81.16138 | 35108 ft | 401 kts | 0° |
| 2026-05-05 18:29 | 32.75677 | -81.14876 | 35107 ft | 402 kts | 0° |
| 2026-05-05 18:30 | 32.81160 | -81.13610 | 35103 ft | 402 kts | 0° |
| 2026-05-05 18:30 | 32.86661 | -81.12334 | 35138 ft | 402 kts | 1° |
| 2026-05-05 18:31 | 32.92160 | -81.11056 | 35128 ft | 403 kts | 1° |
| 2026-05-05 18:31 | 32.97670 | -81.09782 | 35115 ft | 403 kts | 1° |
| 2026-05-05 18:32 | 33.03177 | -81.08502 | 35109 ft | 403 kts | 1° |
| 2026-05-05 18:32 | 33.08692 | -81.07219 | 35110 ft | 404 kts | 1° |
| 2026-05-05 18:33 | 33.14206 | -81.05935 | 35115 ft | 404 kts | 1° |
| 2026-05-05 18:33 | 33.19724 | -81.04651 | 35110 ft | 404 kts | 1° |
| 2026-05-05 18:34 | 33.25209 | -81.03372 | 35118 ft | 404 kts | 1° |
| 2026-05-05 18:34 | 33.30730 | -81.02081 | 35122 ft | 404 kts | 1° |
| 2026-05-05 18:35 | 33.36258 | -81.00787 | 35146 ft | 404 kts | 1° |
| 2026-05-05 18:35 | 33.41778 | -80.99490 | 35137 ft | 405 kts | 1° |
| 2026-05-05 18:36 | 33.47308 | -80.98196 | 35129 ft | 405 kts | 1° |
| 2026-05-05 18:36 | 33.52846 | -80.96898 | 35129 ft | 405 kts | 1° |
| 2026-05-05 18:37 | 33.58383 | -80.95598 | 35103 ft | 406 kts | 1° |
| 2026-05-05 18:37 | 33.63924 | -80.94293 | 35119 ft | 405 kts | 1° |
| 2026-05-05 18:38 | 33.69448 | -80.92977 | 35101 ft | 404 kts | 1° |
| 2026-05-05 18:38 | 33.74970 | -80.91673 | 35098 ft | 404 kts | 1° |
| 2026-05-05 18:39 | 33.80473 | -80.90375 | 35095 ft | 405 kts | 2° |
| 2026-05-05 18:39 | 33.85965 | -80.89084 | 35096 ft | 404 kts | 1° |
| 2026-05-05 18:40 | 33.91489 | -80.88007 | 35114 ft | 400 kts | 359° |
| 2026-05-05 18:40 | 33.97003 | -80.87095 | 35106 ft | 399 kts | 359° |
| 2026-05-05 18:41 | 34.02514 | -80.86159 | 35098 ft | 400 kts | 359° |
| 2026-05-05 18:41 | 34.08023 | -80.85167 | 35120 ft | 400 kts | 360° |
| 2026-05-05 18:42 | 34.13523 | -80.84166 | 35153 ft | 400 kts | 360° |
| 2026-05-05 18:42 | 34.19016 | -80.83170 | 35110 ft | 398 kts | 359° |
| 2026-05-05 18:43 | 34.24461 | -80.82179 | 35106 ft | 399 kts | 360° |
| 2026-05-05 18:43 | 34.29946 | -80.81187 | 35107 ft | 399 kts | 359° |
| 2026-05-05 18:44 | 34.35449 | -80.80196 | 35104 ft | 399 kts | 359° |
| 2026-05-05 18:44 | 34.40944 | -80.79194 | 35127 ft | 399 kts | 360° |
| 2026-05-05 18:45 | 34.46441 | -80.78190 | 35118 ft | 399 kts | 360° |
| 2026-05-05 18:45 | 34.51935 | -80.77193 | 35111 ft | 399 kts | 360° |
| 2026-05-05 18:46 | 34.57426 | -80.76201 | 35111 ft | 399 kts | 360° |
| 2026-05-05 18:46 | 34.62918 | -80.75198 | 35112 ft | 399 kts | 360° |
| 2026-05-05 18:47 | 34.68366 | -80.74191 | 35113 ft | 398 kts | 360° |
| 2026-05-05 18:47 | 34.73840 | -80.73183 | 35108 ft | 398 kts | 359° |
| 2026-05-05 18:48 | 34.79321 | -80.72181 | 35104 ft | 398 kts | 359° |
| 2026-05-05 18:48 | 34.84804 | -80.71175 | 35103 ft | 399 kts | 360° |
| 2026-05-05 18:49 | 34.90294 | -80.70163 | 35126 ft | 399 kts | 359° |
| 2026-05-05 18:49 | 34.95789 | -80.69152 | 35114 ft | 399 kts | 359° |
| 2026-05-05 18:50 | 35.01283 | -80.68140 | 35107 ft | 399 kts | 359° |
| 2026-05-05 18:50 | 35.06747 | -80.67137 | 35106 ft | 399 kts | 359° |
| 2026-05-05 18:51 | 35.12235 | -80.66125 | 35107 ft | 399 kts | 359° |
| 2026-05-05 18:51 | 35.17735 | -80.65104 | 35141 ft | 400 kts | 359° |
| 2026-05-05 18:52 | 35.22341 | -80.64244 | 35143 ft | 400 kts | 359° |
| 2026-05-05 18:52 | 35.27842 | -80.63227 | 35142 ft | 400 kts | 359° |
| 2026-05-05 18:53 | 35.33306 | -80.62216 | 35105 ft | 400 kts | 359° |
| 2026-05-05 18:53 | 35.38803 | -80.61195 | 35103 ft | 400 kts | 359° |
| 2026-05-05 18:54 | 35.44294 | -80.60170 | 35098 ft | 399 kts | 359° |
| 2026-05-05 18:54 | 35.49783 | -80.59143 | 35096 ft | 399 kts | 359° |
| 2026-05-05 18:55 | 35.55280 | -80.58114 | 35096 ft | 399 kts | 359° |
| 2026-05-05 18:55 | 35.60772 | -80.57089 | 35099 ft | 399 kts | 359° |
| 2026-05-05 18:56 | 35.66273 | -80.56061 | 35100 ft | 400 kts | 359° |
| 2026-05-05 18:56 | 35.71781 | -80.55033 | 35101 ft | 400 kts | 359° |
| 2026-05-05 18:57 | 35.77282 | -80.53997 | 35098 ft | 400 kts | 359° |
| 2026-05-05 18:57 | 35.82784 | -80.52960 | 35099 ft | 400 kts | 359° |
| 2026-05-05 18:58 | 35.88315 | -80.51927 | 35053 ft | 408 kts | 360° |
| 2026-05-05 18:58 | 35.93951 | -80.50866 | 35040 ft | 416 kts | 0° |
| 2026-05-05 18:59 | 35.99696 | -80.49772 | 35030 ft | 418 kts | 0° |
| 2026-05-05 18:59 | 36.05448 | -80.48676 | 35029 ft | 418 kts | 0° |
| 2026-05-05 19:00 | 36.11205 | -80.47585 | 35030 ft | 418 kts | 360° |
| 2026-05-05 19:00 | 36.16971 | -80.46495 | 35058 ft | 419 kts | 360° |
| 2026-05-05 19:01 | 36.22748 | -80.45402 | 35053 ft | 420 kts | 360° |
| 2026-05-05 19:01 | 36.28429 | -80.44319 | 35069 ft | 421 kts | 360° |
| 2026-05-05 19:02 | 36.34222 | -80.43200 | 35076 ft | 421 kts | 360° |
| 2026-05-05 19:02 | 36.40027 | -80.42089 | 35092 ft | 422 kts | 359° |
| 2026-05-05 19:03 | 36.45803 | -80.40971 | 35086 ft | 423 kts | 0° |
| 2026-05-05 19:03 | 36.51588 | -80.39786 | 35079 ft | 424 kts | 0° |
| 2026-05-05 19:04 | 36.57351 | -80.38597 | 35053 ft | 424 kts | 0° |
| 2026-05-05 19:04 | 36.63169 | -80.37400 | 35071 ft | 425 kts | 360° |
| 2026-05-05 19:05 | 36.69009 | -80.36207 | 35057 ft | 425 kts | 360° |
| 2026-05-05 19:05 | 36.74858 | -80.35024 | 35049 ft | 425 kts | 359° |
| 2026-05-05 19:06 | 36.80721 | -80.34106 | 35044 ft | 423 kts | 356° |
| 2026-05-05 19:06 | 36.86530 | -80.33372 | 35052 ft | 423 kts | 356° |
| 2026-05-05 19:07 | 36.92404 | -80.32605 | 35053 ft | 425 kts | 357° |
| 2026-05-05 19:07 | 36.98285 | -80.31768 | 35059 ft | 426 kts | 357° |
| 2026-05-05 19:08 | 37.04177 | -80.30911 | 35067 ft | 426 kts | 357° |
| 2026-05-05 19:08 | 37.10073 | -80.30064 | 35094 ft | 427 kts | 356° |
| 2026-05-05 19:09 | 37.15989 | -80.29226 | 35066 ft | 429 kts | 356° |
| 2026-05-05 19:09 | 37.21932 | -80.28381 | 35066 ft | 431 kts | 357° |
| 2026-05-05 19:10 | 37.27900 | -80.27522 | 35020 ft | 433 kts | 357° |
| 2026-05-05 19:10 | 37.33897 | -80.26652 | 35030 ft | 433 kts | 357° |
| 2026-05-05 19:11 | 37.39904 | -80.25793 | 35015 ft | 435 kts | 356° |
| 2026-05-05 19:11 | 37.45882 | -80.24938 | 35011 ft | 436 kts | 356° |
| 2026-05-05 19:12 | 37.51903 | -80.24068 | 35004 ft | 436 kts | 356° |
| 2026-05-05 19:12 | 37.57958 | -80.23187 | 35030 ft | 438 kts | 356° |
| 2026-05-05 19:13 | 37.64011 | -80.22304 | 35021 ft | 439 kts | 356° |
| 2026-05-05 19:13 | 37.70095 | -80.21414 | 35026 ft | 440 kts | 357° |
| 2026-05-05 19:14 | 37.76175 | -80.20507 | 35025 ft | 440 kts | 357° |
| 2026-05-05 19:14 | 37.82263 | -80.19591 | 35046 ft | 441 kts | 357° |
| 2026-05-05 19:15 | 37.88271 | -80.18689 | 35033 ft | 441 kts | 356° |
| 2026-05-05 19:15 | 37.94350 | -80.17785 | 35025 ft | 442 kts | 356° |
| 2026-05-05 19:16 | 38.00461 | -80.16866 | 34998 ft | 442 kts | 357° |
| 2026-05-05 19:16 | 38.06573 | -80.15949 | 34997 ft | 442 kts | 357° |
| 2026-05-05 19:17 | 38.12690 | -80.15033 | 35003 ft | 442 kts | 357° |
| 2026-05-05 19:17 | 38.18797 | -80.14124 | 35000 ft | 442 kts | 357° |
| 2026-05-05 19:18 | 38.24909 | -80.13200 | 35018 ft | 442 kts | 357° |
| 2026-05-05 19:18 | 38.30948 | -80.12268 | 34971 ft | 424 kts | 357° |
| 2026-05-05 19:19 | 38.36818 | -80.11388 | 34976 ft | 428 kts | 355° |
| 2026-05-05 19:19 | 38.42747 | -80.10915 | 34972 ft | 430 kts | 352° |
| 2026-05-05 19:20 | 38.48728 | -80.10708 | 34988 ft | 425 kts | 352° |
| 2026-05-05 19:20 | 38.54515 | -80.10458 | 34680 ft | 412 kts | 352° |
| 2026-05-05 19:21 | 38.57381 | -80.10315 | 34059 ft | 412 kts | 352° |
| 2026-05-05 19:21 | 38.60262 | -80.10167 | 33162 ft | 416 kts | 352° |
| 2026-05-05 19:21 | 38.63135 | -80.10016 | 32232 ft | 422 kts | 354° |
| 2026-05-05 19:21 | 38.65985 | -80.09860 | 31256 ft | 430 kts | 355° |
| 2026-05-05 19:22 | 38.69003 | -80.09693 | 30216 ft | 440 kts | 356° |
| 2026-05-05 19:22 | 38.72097 | -80.09521 | 28973 ft | 450 kts | 357° |
| 2026-05-05 19:22 | 38.75259 | -80.09343 | 27738 ft | 459 kts | 358° |
| 2026-05-05 19:22 | 38.78477 | -80.09156 | 26626 ft | 464 kts | 358° |
| 2026-05-05 19:23 | 38.81705 | -80.08970 | 25821 ft | 463 kts | 359° |
| 2026-05-05 19:23 | 38.84913 | -80.08782 | 25095 ft | 460 kts | 359° |
| 2026-05-05 19:23 | 38.88092 | -80.08598 | 24374 ft | 457 kts | 359° |
| 2026-05-05 19:23 | 38.91253 | -80.08163 | 23661 ft | 456 kts | 9° |
| 2026-05-05 19:24 | 38.94295 | -80.06992 | 23125 ft | 458 kts | 20° |
| 2026-05-05 19:24 | 38.97191 | -80.05269 | 22908 ft | 459 kts | 24° |
| 2026-05-05 19:24 | 39.00071 | -80.03515 | 22953 ft | 459 kts | 23° |
| 2026-05-05 19:24 | 39.02930 | -80.01776 | 22948 ft | 460 kts | 24° |
| 2026-05-05 19:25 | 39.05826 | -80.00012 | 22942 ft | 460 kts | 23° |
| 2026-05-05 19:25 | 39.08720 | -79.98250 | 22942 ft | 460 kts | 23° |
| 2026-05-05 19:25 | 39.11614 | -79.96486 | 22936 ft | 460 kts | 24° |
| 2026-05-05 19:25 | 39.14504 | -79.94720 | 22949 ft | 460 kts | 24° |
| 2026-05-05 19:26 | 39.17400 | -79.92951 | 22909 ft | 460 kts | 23° |
| 2026-05-05 19:26 | 39.20306 | -79.91177 | 22927 ft | 460 kts | 23° |
| 2026-05-05 19:26 | 39.23200 | -79.89407 | 22909 ft | 460 kts | 23° |
| 2026-05-05 19:26 | 39.26085 | -79.87633 | 22919 ft | 460 kts | 24° |
| 2026-05-05 19:27 | 39.28970 | -79.85858 | 22925 ft | 460 kts | 24° |
| 2026-05-05 19:27 | 39.31870 | -79.84073 | 22919 ft | 460 kts | 24° |
| 2026-05-05 19:27 | 39.34760 | -79.82296 | 22913 ft | 460 kts | 23° |
| 2026-05-05 19:27 | 39.37656 | -79.80517 | 22872 ft | 460 kts | 23° |
| 2026-05-05 19:28 | 39.40425 | -79.78809 | 22331 ft | 452 kts | 23° |
| 2026-05-05 19:28 | 39.43196 | -79.77091 | 22184 ft | 427 kts | 23° |
| 2026-05-05 19:28 | 39.45753 | -79.75501 | 22045 ft | 402 kts | 23° |
| 2026-05-05 19:28 | 39.48224 | -79.73961 | 21879 ft | 380 kts | 23° |
| 2026-05-05 19:29 | 39.50572 | -79.72500 | 21377 ft | 370 kts | 22° |
| 2026-05-05 19:29 | 39.52872 | -79.71082 | 20766 ft | 365 kts | 22° |
| 2026-05-05 19:29 | 39.55156 | -79.69680 | 20129 ft | 361 kts | 22° |
| 2026-05-05 19:29 | 39.57411 | -79.68290 | 19486 ft | 358 kts | 21° |
| 2026-05-05 19:30 | 39.59621 | -79.66928 | 18871 ft | 355 kts | 21° |
| 2026-05-05 19:30 | 39.61841 | -79.65556 | 18246 ft | 352 kts | 21° |
| 2026-05-05 19:30 | 39.64042 | -79.64192 | 17546 ft | 350 kts | 21° |
| 2026-05-05 19:30 | 39.66223 | -79.62840 | 16876 ft | 347 kts | 21° |
| 2026-05-05 19:31 | 39.68394 | -79.61491 | 16232 ft | 344 kts | 21° |
| 2026-05-05 19:31 | 39.70538 | -79.60157 | 15587 ft | 341 kts | 21° |
| 2026-05-05 19:31 | 39.72652 | -79.58836 | 14976 ft | 338 kts | 21° |
| 2026-05-05 19:31 | 39.74758 | -79.57520 | 14373 ft | 335 kts | 21° |
| 2026-05-05 19:32 | 39.76868 | -79.56203 | 13915 ft | 335 kts | 21° |
| 2026-05-05 19:32 | 39.78959 | -79.54897 | 13523 ft | 333 kts | 20° |
| 2026-05-05 19:32 | 39.81057 | -79.53588 | 13057 ft | 333 kts | 20° |
| 2026-05-05 19:32 | 39.83135 | -79.52289 | 12616 ft | 331 kts | 21° |
| 2026-05-05 19:33 | 39.85203 | -79.50994 | 12187 ft | 329 kts | 21° |
| 2026-05-05 19:33 | 39.87260 | -79.49703 | 11780 ft | 327 kts | 21° |
| 2026-05-05 19:33 | 39.89273 | -79.48439 | 11399 ft | 324 kts | 21° |
| 2026-05-05 19:33 | 39.91299 | -79.47167 | 10981 ft | 322 kts | 21° |
| 2026-05-05 19:34 | 39.93312 | -79.45926 | 10610 ft | 318 kts | 18° |
| 2026-05-05 19:34 | 39.95401 | -79.45095 | 10223 ft | 311 kts | 6° |
| 2026-05-05 19:34 | 39.97525 | -79.44842 | 10031 ft | 304 kts | 353° |
| 2026-05-05 19:35 | 40.01587 | -79.45882 | 10029 ft | 293 kts | 331° |
| 2026-05-05 19:35 | 40.03371 | -79.47085 | 10019 ft | 286 kts | 321° |
| 2026-05-05 19:35 | 40.04928 | -79.48645 | 9899 ft | 279 kts | 311° |
| 2026-05-05 19:35 | 40.06229 | -79.50493 | 9486 ft | 274 kts | 304° |
| 2026-05-05 19:36 | 40.07459 | -79.52396 | 9074 ft | 274 kts | 304° |
| 2026-05-05 19:36 | 40.08686 | -79.54287 | 8632 ft | 272 kts | 304° |
| 2026-05-05 19:36 | 40.09911 | -79.56171 | 8195 ft | 272 kts | 304° |
| 2026-05-05 19:36 | 40.10727 | -79.57425 | 7938 ft | 271 kts | 304° |
| 2026-05-05 19:37 | 40.11947 | -79.59296 | 7542 ft | 270 kts | 304° |
| 2026-05-05 19:37 | 40.13162 | -79.61164 | 7100 ft | 270 kts | 303° |
| 2026-05-05 19:37 | 40.14352 | -79.63060 | 6718 ft | 268 kts | 302° |
| 2026-05-05 19:37 | 40.15894 | -79.65570 | 6203 ft | 267 kts | 302° |
| 2026-05-05 19:38 | 40.16671 | -79.66843 | 6026 ft | 264 kts | 302° |
| 2026-05-05 19:38 | 40.17822 | -79.68729 | 5997 ft | 266 kts | 302° |
| 2026-05-05 19:38 | 40.18981 | -79.70628 | 5996 ft | 264 kts | 301° |
| 2026-05-05 19:38 | 40.19867 | -79.72578 | 6002 ft | 236 kts | 288° |
| 2026-05-05 19:39 | 40.20506 | -79.74451 | 5993 ft | 218 kts | 287° |
| 2026-05-05 19:39 | 40.21120 | -79.76254 | 5999 ft | 216 kts | 287° |
| 2026-05-05 19:39 | 40.21729 | -79.78042 | 5990 ft | 215 kts | 288° |
| 2026-05-05 19:39 | 40.22549 | -79.79646 | 5872 ft | 211 kts | 304° |
| 2026-05-05 19:40 | 40.23652 | -79.80858 | 5755 ft | 203 kts | 320° |
| 2026-05-05 19:40 | 40.24902 | -79.81632 | 5468 ft | 203 kts | 334° |
| 2026-05-05 19:40 | 40.26285 | -79.82004 | 5112 ft | 206 kts | 344° |
| 2026-05-05 19:40 | 40.27732 | -79.82288 | 4728 ft | 207 kts | 344° |
| 2026-05-05 19:41 | 40.29108 | -79.82554 | 4589 ft | 191 kts | 343° |
| 2026-05-05 19:41 | 40.30401 | -79.82805 | 4307 ft | 186 kts | 342° |
| 2026-05-05 19:41 | 40.31660 | -79.83058 | 4002 ft | 185 kts | 342° |
| 2026-05-05 19:41 | 40.32928 | -79.83314 | 3709 ft | 184 kts | 343° |
| 2026-05-05 19:42 | 40.34187 | -79.83569 | 3370 ft | 184 kts | 343° |
| 2026-05-05 19:42 | 40.35442 | -79.83817 | 3146 ft | 180 kts | 343° |
| 2026-05-05 19:42 | 40.36683 | -79.84066 | 3045 ft | 179 kts | 342° |
| 2026-05-05 19:42 | 40.37760 | -79.84713 | 3002 ft | 167 kts | 309° |
| 2026-05-05 19:43 | 40.38498 | -79.85867 | 3004 ft | 166 kts | 300° |
| 2026-05-05 19:43 | 40.39218 | -79.87060 | 3011 ft | 167 kts | 300° |
| 2026-05-05 19:43 | 40.39938 | -79.88243 | 3020 ft | 168 kts | 300° |
| 2026-05-05 19:43 | 40.40667 | -79.89443 | 3021 ft | 167 kts | 300° |
| 2026-05-05 19:44 | 40.41391 | -79.90639 | 3017 ft | 167 kts | 300° |
| 2026-05-05 19:44 | 40.42110 | -79.91831 | 3000 ft | 168 kts | 300° |
| 2026-05-05 19:44 | 40.42836 | -79.93033 | 2990 ft | 167 kts | 298° |
| 2026-05-05 19:44 | 40.43562 | -79.94236 | 3006 ft | 168 kts | 300° |
| 2026-05-05 19:45 | 40.44282 | -79.95428 | 3005 ft | 165 kts | 300° |
| 2026-05-05 19:45 | 40.44999 | -79.96614 | 3011 ft | 166 kts | 300° |
| 2026-05-05 19:45 | 40.45711 | -79.97798 | 3006 ft | 164 kts | 300° |
| 2026-05-05 19:45 | 40.46400 | -79.98941 | 3004 ft | 162 kts | 299° |
| 2026-05-05 19:46 | 40.47108 | -80.00114 | 3013 ft | 162 kts | 300° |
| 2026-05-05 19:46 | 40.47737 | -80.01311 | 3001 ft | 155 kts | 288° |
| 2026-05-05 19:46 | 40.47976 | -80.02635 | 3003 ft | 147 kts | 268° |
| 2026-05-05 19:46 | 40.48056 | -80.03987 | 3005 ft | 150 kts | 268° |
| 2026-05-05 19:47 | 40.48116 | -80.05377 | 2999 ft | 153 kts | 267° |
| 2026-05-05 19:47 | 40.48165 | -80.06772 | 3000 ft | 154 kts | 266° |
| 2026-05-05 19:47 | 40.48208 | -80.08199 | 2997 ft | 158 kts | 266° |
| 2026-05-05 19:47 | 40.48251 | -80.09632 | 2828 ft | 155 kts | 266° |
| 2026-05-05 19:48 | 40.48290 | -80.11020 | 2645 ft | 153 kts | 266° |
| 2026-05-05 19:48 | 40.48330 | -80.12430 | 2434 ft | 151 kts | 268° |
| 2026-05-05 19:48 | 40.48367 | -80.13795 | 2242 ft | 154 kts | 268° |
| 2026-05-05 19:48 | 40.48398 | -80.14962 | 2082 ft | 158 kts | 266° |
| 2026-05-05 19:49 | 40.48434 | -80.16302 | 1901 ft | 157 kts | 265° |
| 2026-05-05 19:49 | 40.48472 | -80.17702 | 1691 ft | 156 kts | 269° |
| 2026-05-05 19:49 | 40.48496 | -80.18560 | 1579 ft | 154 kts | 269° |
| 2026-05-05 19:49 | 40.48525 | -80.19387 | 1419 ft | 156 kts | 271° |
| 2026-05-05 19:50 | 40.48578 | -80.20415 | 1246 ft | 152 kts | 268° |
| 2026-05-05 19:50 | 40.48586 | -80.21563 | 1223 ft | 144 kts | 266° |
| 2026-05-05 19:50 | 40.48623 | -80.22677 | 1183 ft | 122 kts | 265° |
| 2026-05-05 19:50 | 40.48628 | -80.23584 | 1149 ft | 94 kts | 270° |
| 2026-05-05 19:51 | 40.48643 | -80.24110 | 1153 ft | 42 kts | 273° |
| 2026-05-05 19:51 | 40.48654 | -80.24527 | 1154 ft | 32 kts | 272° |
| 2026-05-05 19:51 | 40.48675 | -80.24723 | 1152 ft | 11 kts | 307° |
| 2026-05-05 19:51 | 40.48781 | -80.24764 | 1154 ft | 22 kts | 0° |
| 2026-05-05 19:52 | 40.48864 | -80.24763 | 1155 ft | 11 kts | 1° |
| 2026-05-05 19:52 | 40.48957 | -80.24769 | 1153 ft | 21 kts | 356° |
| 2026-05-05 19:52 | 40.49040 | -80.24778 | 1152 ft | 4 kts | 357° |
| 2026-05-05 19:52 | 40.49060 | -80.24777 | 1152 ft | 5 kts | 9° |
| 2026-05-05 19:53 | 40.49086 | -80.24718 | 1153 ft | 12 kts | 86° |
| 2026-05-05 19:53 | 40.49085 | -80.24634 | 1154 ft | 0 kts | 91° |
| 2026-05-05 19:57 | 40.49085 | -80.24628 | 1154 ft | 1 kts | 91° |
| 2026-05-05 19:58 | 40.49084 | -80.24609 | 1162 ft | 3 kts | 92° |
| 2026-05-05 19:58 | 40.49083 | -80.24576 | 1154 ft | 4 kts | 92° |
| 2026-05-05 19:58 | 40.49082 | -80.24529 | 1154 ft | 6 kts | 92° |
| 2026-05-05 19:58 | 40.49080 | -80.24472 | 1154 ft | 8 kts | 92° |
| 2026-05-05 19:59 | 40.49088 | -80.24400 | 1154 ft | 9 kts | 63° |
| 2026-05-05 19:59 | 40.49126 | -80.24372 | 1154 ft | 8 kts | 6° |
| 2026-05-05 19:59 | 40.49167 | -80.24369 | 1155 ft | 5 kts | 2° |
| 2026-05-05 19:59 | 40.49203 | -80.24373 | 1155 ft | 5 kts | 341° |
| 2026-05-05 20:00 | 40.49234 | -80.24402 | 1155 ft | 6 kts | 318° |
| 2026-05-05 20:00 | 40.49268 | -80.24445 | 1155 ft | 8 kts | 316° |
| 2026-05-05 20:00 | 40.49309 | -80.24495 | 1154 ft | 9 kts | 316° |
| 2026-05-05 20:00 | 40.49352 | -80.24559 | 1155 ft | 10 kts | 303° |
| 2026-05-05 20:01 | 40.49360 | -80.24647 | 1155 ft | 10 kts | 255° |
| 2026-05-05 20:01 | 40.49357 | -80.24664 | 1155 ft | 2 kts | 258° |
| 2026-05-05 20:01 | 40.49357 | -80.24692 | 1155 ft | 4 kts | 276° |
| 2026-05-05 20:01 | 40.49373 | -80.24730 | 1156 ft | 6 kts | 314° |
| 2026-05-05 20:02 | 40.49386 | -80.24743 | 1156 ft | 0 kts | 322° |